sensor_id;sensor_type;location;lat;lon;timestamp;noise_LAeq;noise_LA_min;noise_LA_max;noise_LA01;noise_LA95
66335;Laerm;53138;51.496;6.410;2023-02-04T00:00:04;38.95;30.32;51.02;;
66335;Laerm;53138;51.496;6.410;2023-02-04T00:00:17;38.55;30.13;52.42;;
66335;Laerm;53138;51.496;6.410;2023-02-04T00:00:28;33.11;30.45;38.08;;
66335;Laerm;53138;51.496;6.410;2023-02-04T00:00:39;35.10;30.96;43.51;;
66335;Laerm;53138;51.496;6.410;2023-02-04T00:00:50;37.40;30.88;47.53;;
66335;Laerm;53138;51.496;6.410;2023-02-04T00:01:00;44.47;38.72;49.68;;
66335;Laerm;53138;51.496;6.410;2023-02-04T00:01:10;40.97;34.13;47.08;;
66335;Laerm;53138;51.496;6.410;2023-02-04T00:01:20;36.17;33.74;38.60;;
66335;Laerm;53138;51.496;6.410;2023-02-04T00:01:31;37.36;34.35;40.38;;
66335;Laerm;53138;51.496;6.410;2023-02-04T00:01:41;40.84;35.30;50.09;;
66335;Laerm;53138;51.496;6.410;2023-02-04T00:01:51;45.62;40.29;49.19;;
66335;Laerm;53138;51.496;6.410;2023-02-04T00:02:01;40.43;35.99;45.79;;
66335;Laerm;53138;51.496;6.410;2023-02-04T00:02:11;37.36;33.58;43.23;;
66335;Laerm;53138;51.496;6.410;2023-02-04T00:02:22;42.12;36.60;47.77;;
66335;Laerm;53138;51.496;6.410;2023-02-04T00:02:32;36.67;32.35;41.96;;
66335;Laerm;53138;51.496;6.410;2023-02-04T00:02:42;34.76;32.55;38.26;;
66335;Laerm;53138;51.496;6.410;2023-02-04T00:02:52;34.23;31.37;46.10;;
66335;Laerm;53138;51.496;6.410;2023-02-04T00:03:03;32.73;31.16;34.67;;
66335;Laerm;53138;51.496;6.410;2023-02-04T00:03:13;31.76;29.99;33.96;;
66335;Laerm;53138;51.496;6.410;2023-02-04T00:03:24;31.50;29.96;38.35;;
66335;Laerm;53138;51.496;6.410;2023-02-04T00:03:34;31.45;29.89;33.12;;
66335;Laerm;53138;51.496;6.410;2023-02-04T00:03:44;32.56;30.05;42.15;;
66335;Laerm;53138;51.496;6.410;2023-02-04T00:03:54;31.80;29.96;39.04;;
66335;Laerm;53138;51.496;6.410;2023-02-04T00:04:04;32.20;29.27;38.01;;
66335;Laerm;53138;51.496;6.410;2023-02-04T00:04:15;31.25;29.65;37.50;;
66335;Laerm;53138;51.496;6.410;2023-02-04T00:04:25;31.42;30.00;39.89;;
66335;Laerm;53138;51.496;6.410;2023-02-04T00:04:35;32.32;30.06;36.11;;
66335;Laerm;53138;51.496;6.410;2023-02-04T00:04:45;38.18;31.44;42.89;;
66335;Laerm;53138;51.496;6.410;2023-02-04T00:04:55;38.22;33.88;43.07;;
66335;Laerm;53138;51.496;6.410;2023-02-04T00:05:06;39.34;34.21;45.89;;
66335;Laerm;53138;51.496;6.410;2023-02-04T00:05:16;34.18;31.21;36.76;;
66335;Laerm;53138;51.496;6.410;2023-02-04T00:05:27;32.79;31.17;35.45;;
66335;Laerm;53138;51.496;6.410;2023-02-04T00:05:37;33.05;31.53;34.65;;
66335;Laerm;53138;51.496;6.410;2023-02-04T00:05:48;33.18;30.41;42.61;;
66335;Laerm;53138;51.496;6.410;2023-02-04T00:05:58;36.74;30.75;50.23;;
66335;Laerm;53138;51.496;6.410;2023-02-04T00:06:08;36.09;30.64;50.25;;
66335;Laerm;53138;51.496;6.410;2023-02-04T00:06:19;33.07;30.45;42.59;;
66335;Laerm;53138;51.496;6.410;2023-02-04T00:06:29;35.38;30.64;48.01;;
66335;Laerm;53138;51.496;6.410;2023-02-04T00:06:39;35.52;30.50;44.31;;
66335;Laerm;53138;51.496;6.410;2023-02-04T00:06:49;33.94;30.61;45.04;;
66335;Laerm;53138;51.496;6.410;2023-02-04T00:06:59;32.63;30.43;42.91;;
66335;Laerm;53138;51.496;6.410;2023-02-04T00:07:10;38.87;30.78;53.41;;
66335;Laerm;53138;51.496;6.410;2023-02-04T00:07:20;34.86;30.70;50.41;;
66335;Laerm;53138;51.496;6.410;2023-02-04T00:07:30;34.60;30.34;52.80;;
66335;Laerm;53138;51.496;6.410;2023-02-04T00:07:40;33.52;30.45;48.14;;
66335;Laerm;53138;51.496;6.410;2023-02-04T00:07:51;32.57;30.69;35.66;;
66335;Laerm;53138;51.496;6.410;2023-02-04T00:08:01;33.19;31.49;38.30;;
66335;Laerm;53138;51.496;6.410;2023-02-04T00:08:11;35.44;32.66;43.13;;
66335;Laerm;53138;51.496;6.410;2023-02-04T00:08:21;39.34;34.61;52.45;;
66335;Laerm;53138;51.496;6.410;2023-02-04T00:08:31;44.72;37.72;49.98;;
66335;Laerm;53138;51.496;6.410;2023-02-04T00:08:42;40.07;31.49;48.52;;
66335;Laerm;53138;51.496;6.410;2023-02-04T00:08:52;31.65;29.96;36.13;;
66335;Laerm;53138;51.496;6.410;2023-02-04T00:09:02;31.54;30.00;37.53;;
66335;Laerm;53138;51.496;6.410;2023-02-04T00:09:12;31.25;29.65;32.86;;
66335;Laerm;53138;51.496;6.410;2023-02-04T00:09:25;32.72;29.38;43.54;;
66335;Laerm;53138;51.496;6.410;2023-02-04T00:09:35;30.98;29.58;33.86;;
66335;Laerm;53138;51.496;6.410;2023-02-04T00:09:45;31.18;29.50;35.02;;
66335;Laerm;53138;51.496;6.410;2023-02-04T00:09:56;31.83;30.13;41.68;;
66335;Laerm;53138;51.496;6.410;2023-02-04T00:10:06;31.17;29.74;32.96;;
66335;Laerm;53138;51.496;6.410;2023-02-04T00:10:17;35.40;29.96;49.53;;
66335;Laerm;53138;51.496;6.410;2023-02-04T00:10:28;33.45;30.70;42.38;;
66335;Laerm;53138;51.496;6.410;2023-02-04T00:10:38;34.12;31.86;36.41;;
66335;Laerm;53138;51.496;6.410;2023-02-04T00:10:48;35.55;32.33;39.07;;
66335;Laerm;53138;51.496;6.410;2023-02-04T00:10:58;40.68;35.55;47.83;;
66335;Laerm;53138;51.496;6.410;2023-02-04T00:11:08;42.23;36.25;47.74;;
66335;Laerm;53138;51.496;6.410;2023-02-04T00:11:19;34.96;31.94;44.15;;
66335;Laerm;53138;51.496;6.410;2023-02-04T00:11:29;34.93;31.44;49.72;;
66335;Laerm;53138;51.496;6.410;2023-02-04T00:11:39;37.75;33.94;43.84;;
66335;Laerm;53138;51.496;6.410;2023-02-04T00:11:49;43.89;38.40;50.46;;
66335;Laerm;53138;51.496;6.410;2023-02-04T00:11:59;42.30;30.92;50.78;;
66335;Laerm;53138;51.496;6.410;2023-02-04T00:12:09;34.29;30.36;44.99;;
66335;Laerm;53138;51.496;6.410;2023-02-04T00:12:20;33.87;29.83;42.83;;
66335;Laerm;53138;51.496;6.410;2023-02-04T00:12:30;32.10;30.35;34.13;;
66335;Laerm;53138;51.496;6.410;2023-02-04T00:12:40;31.95;29.98;34.33;;
66335;Laerm;53138;51.496;6.410;2023-02-04T00:12:50;32.52;30.56;36.26;;
66335;Laerm;53138;51.496;6.410;2023-02-04T00:13:01;32.36;30.74;34.59;;
66335;Laerm;53138;51.496;6.410;2023-02-04T00:13:11;32.72;31.10;35.66;;
66335;Laerm;53138;51.496;6.410;2023-02-04T00:13:21;33.31;30.93;36.70;;
66335;Laerm;53138;51.496;6.410;2023-02-04T00:13:32;35.70;33.02;40.55;;
66335;Laerm;53138;51.496;6.410;2023-02-04T00:13:42;39.14;34.43;43.62;;
66335;Laerm;53138;51.496;6.410;2023-02-04T00:13:52;38.22;34.45;43.30;;
66335;Laerm;53138;51.496;6.410;2023-02-04T00:14:02;35.69;33.19;38.54;;
66335;Laerm;53138;51.496;6.410;2023-02-04T00:14:12;36.73;34.23;39.99;;
66335;Laerm;53138;51.496;6.410;2023-02-04T00:14:23;43.20;36.39;49.56;;
66335;Laerm;53138;51.496;6.410;2023-02-04T00:14:33;48.20;43.33;52.91;;
66335;Laerm;53138;51.496;6.410;2023-02-04T00:14:43;44.13;37.61;49.15;;
66335;Laerm;53138;51.496;6.410;2023-02-04T00:14:53;38.78;34.59;43.79;;
66335;Laerm;53138;51.496;6.410;2023-02-04T00:15:04;35.40;33.63;37.41;;
66335;Laerm;53138;51.496;6.410;2023-02-04T00:15:14;39.48;34.50;45.84;;
66335;Laerm;53138;51.496;6.410;2023-02-04T00:15:24;36.07;33.61;40.55;;
66335;Laerm;53138;51.496;6.410;2023-02-04T00:15:34;35.26;33.30;43.90;;
66335;Laerm;53138;51.496;6.410;2023-02-04T00:15:45;37.02;34.39;40.33;;
66335;Laerm;53138;51.496;6.410;2023-02-04T00:15:55;35.13;33.43;39.90;;
66335;Laerm;53138;51.496;6.410;2023-02-04T00:16:05;35.24;33.07;37.54;;
66335;Laerm;53138;51.496;6.410;2023-02-04T00:16:15;35.15;33.25;36.97;;
66335;Laerm;53138;51.496;6.410;2023-02-04T00:16:26;35.04;32.93;37.53;;
66335;Laerm;53138;51.496;6.410;2023-02-04T00:16:36;35.23;33.33;40.18;;
66335;Laerm;53138;51.496;6.410;2023-02-04T00:16:46;36.16;33.79;41.39;;
66335;Laerm;53138;51.496;6.410;2023-02-04T00:16:56;41.14;36.34;47.13;;
66335;Laerm;53138;51.496;6.410;2023-02-04T00:17:07;43.23;38.73;47.52;;
66335;Laerm;53138;51.496;6.410;2023-02-04T00:17:19;44.96;38.35;50.33;;
66335;Laerm;53138;51.496;6.410;2023-02-04T00:17:29;44.60;37.29;52.54;;
66335;Laerm;53138;51.496;6.410;2023-02-04T00:17:39;38.89;33.38;44.66;;
66335;Laerm;53138;51.496;6.410;2023-02-04T00:17:49;36.28;32.86;39.67;;
66335;Laerm;53138;51.496;6.410;2023-02-04T00:18:00;40.07;33.25;45.87;;
66335;Laerm;53138;51.496;6.410;2023-02-04T00:18:10;41.05;36.69;47.82;;
66335;Laerm;53138;51.496;6.410;2023-02-04T00:18:20;37.76;33.66;42.19;;
66335;Laerm;53138;51.496;6.410;2023-02-04T00:18:30;36.03;33.57;38.65;;
66335;Laerm;53138;51.496;6.410;2023-02-04T00:18:40;34.31;32.72;35.95;;
66335;Laerm;53138;51.496;6.410;2023-02-04T00:18:51;34.30;32.10;35.89;;
66335;Laerm;53138;51.496;6.410;2023-02-04T00:19:01;35.50;32.64;41.61;;
66335;Laerm;53138;51.496;6.410;2023-02-04T00:19:11;34.45;32.37;40.81;;
66335;Laerm;53138;51.496;6.410;2023-02-04T00:19:21;33.58;31.90;35.19;;
66335;Laerm;53138;51.496;6.410;2023-02-04T00:19:32;33.60;31.89;34.93;;
66335;Laerm;53138;51.496;6.410;2023-02-04T00:19:42;33.52;32.06;35.23;;
66335;Laerm;53138;51.496;6.410;2023-02-04T00:19:53;33.55;31.65;35.60;;
66335;Laerm;53138;51.496;6.410;2023-02-04T00:20:03;33.99;31.89;39.98;;
66335;Laerm;53138;51.496;6.410;2023-02-04T00:20:13;33.89;32.08;37.88;;
66335;Laerm;53138;51.496;6.410;2023-02-04T00:20:23;33.50;31.51;35.59;;
66335;Laerm;53138;51.496;6.410;2023-02-04T00:20:34;33.59;31.95;35.16;;
66335;Laerm;53138;51.496;6.410;2023-02-04T00:20:44;33.62;31.92;35.15;;
66335;Laerm;53138;51.496;6.410;2023-02-04T00:20:54;33.57;32.29;35.12;;
66335;Laerm;53138;51.496;6.410;2023-02-04T00:21:04;34.08;32.27;37.37;;
66335;Laerm;53138;51.496;6.410;2023-02-04T00:21:14;38.75;32.92;48.61;;
66335;Laerm;53138;51.496;6.410;2023-02-04T00:21:25;36.21;32.21;44.70;;
66335;Laerm;53138;51.496;6.410;2023-02-04T00:21:35;34.22;31.94;40.21;;
66335;Laerm;53138;51.496;6.410;2023-02-04T00:21:45;33.83;32.12;37.40;;
66335;Laerm;53138;51.496;6.410;2023-02-04T00:21:55;35.28;32.65;43.74;;
66335;Laerm;53138;51.496;6.410;2023-02-04T00:22:06;35.24;31.84;45.57;;
66335;Laerm;53138;51.496;6.410;2023-02-04T00:22:16;37.03;32.13;45.74;;
66335;Laerm;53138;51.496;6.410;2023-02-04T00:22:27;34.53;32.41;44.31;;
66335;Laerm;53138;51.496;6.410;2023-02-04T00:22:37;34.39;32.60;39.62;;
66335;Laerm;53138;51.496;6.410;2023-02-04T00:22:48;34.77;32.23;44.08;;
66335;Laerm;53138;51.496;6.410;2023-02-04T00:22:58;36.68;32.66;51.05;;
66335;Laerm;53138;51.496;6.410;2023-02-04T00:23:08;34.24;32.45;38.59;;
66335;Laerm;53138;51.496;6.410;2023-02-04T00:23:18;34.77;32.64;40.74;;
66335;Laerm;53138;51.496;6.410;2023-02-04T00:23:28;35.39;33.30;39.56;;
66335;Laerm;53138;51.496;6.410;2023-02-04T00:23:39;36.98;33.04;45.88;;
66335;Laerm;53138;51.496;6.410;2023-02-04T00:23:50;38.73;34.90;44.34;;
66335;Laerm;53138;51.496;6.410;2023-02-04T00:24:00;46.21;36.54;51.89;;
66335;Laerm;53138;51.496;6.410;2023-02-04T00:24:10;47.10;41.00;54.43;;
66335;Laerm;53138;51.496;6.410;2023-02-04T00:24:20;43.83;35.63;53.65;;
66335;Laerm;53138;51.496;6.410;2023-02-04T00:24:30;42.46;36.09;50.95;;
66335;Laerm;53138;51.496;6.410;2023-02-04T00:24:40;44.76;35.74;51.17;;
66335;Laerm;53138;51.496;6.410;2023-02-04T00:24:52;35.30;33.29;40.28;;
66335;Laerm;53138;51.496;6.410;2023-02-04T00:25:02;37.17;33.43;46.38;;
66335;Laerm;53138;51.496;6.410;2023-02-04T00:25:12;36.59;33.91;43.49;;
66335;Laerm;53138;51.496;6.410;2023-02-04T00:25:22;37.05;34.66;42.33;;
66335;Laerm;53138;51.496;6.410;2023-02-04T00:25:33;42.51;37.43;51.17;;
66335;Laerm;53138;51.496;6.410;2023-02-04T00:25:43;42.98;33.99;49.74;;
66335;Laerm;53138;51.496;6.410;2023-02-04T00:25:53;34.04;32.43;36.05;;
66335;Laerm;53138;51.496;6.410;2023-02-04T00:26:03;34.49;32.43;38.61;;
66335;Laerm;53138;51.496;6.410;2023-02-04T00:26:13;35.47;32.64;41.71;;
66335;Laerm;53138;51.496;6.410;2023-02-04T00:26:24;34.26;32.37;38.36;;
66335;Laerm;53138;51.496;6.410;2023-02-04T00:26:34;34.61;32.68;39.62;;
66335;Laerm;53138;51.496;6.410;2023-02-04T00:26:44;34.65;32.98;37.59;;
66335;Laerm;53138;51.496;6.410;2023-02-04T00:26:55;37.53;33.45;43.01;;
66335;Laerm;53138;51.496;6.410;2023-02-04T00:27:05;42.14;37.36;47.15;;
66335;Laerm;53138;51.496;6.410;2023-02-04T00:27:16;37.06;32.67;42.97;;
66335;Laerm;53138;51.496;6.410;2023-02-04T00:27:26;34.06;31.76;35.52;;
66335;Laerm;53138;51.496;6.410;2023-02-04T00:27:36;35.84;32.48;44.73;;
66335;Laerm;53138;51.496;6.410;2023-02-04T00:27:47;34.67;33.04;36.69;;
66335;Laerm;53138;51.496;6.410;2023-02-04T00:27:57;37.08;33.86;40.50;;
66335;Laerm;53138;51.496;6.410;2023-02-04T00:28:07;41.19;36.53;46.94;;
66335;Laerm;53138;51.496;6.410;2023-02-04T00:28:17;44.16;36.41;49.08;;
66335;Laerm;53138;51.496;6.410;2023-02-04T00:28:28;35.45;33.06;40.26;;
66335;Laerm;53138;51.496;6.410;2023-02-04T00:28:38;38.78;34.32;47.76;;
66335;Laerm;53138;51.496;6.410;2023-02-04T00:28:49;41.91;37.26;46.43;;
66335;Laerm;53138;51.496;6.410;2023-02-04T00:28:59;45.36;38.27;51.23;;
66335;Laerm;53138;51.496;6.410;2023-02-04T00:29:09;35.80;32.06;41.36;;
66335;Laerm;53138;51.496;6.410;2023-02-04T00:29:20;37.80;33.08;46.43;;
66335;Laerm;53138;51.496;6.410;2023-02-04T00:29:30;40.77;34.72;46.84;;
66335;Laerm;53138;51.496;6.410;2023-02-04T00:29:40;42.48;36.65;49.20;;
66335;Laerm;53138;51.496;6.410;2023-02-04T00:29:50;40.67;35.22;47.11;;
66335;Laerm;53138;51.496;6.410;2023-02-04T00:30:01;35.04;32.54;38.23;;
66335;Laerm;53138;51.496;6.410;2023-02-04T00:30:12;34.36;32.00;36.57;;
66335;Laerm;53138;51.496;6.410;2023-02-04T00:30:22;34.78;32.58;38.76;;
66335;Laerm;53138;51.496;6.410;2023-02-04T00:30:32;33.74;31.19;37.30;;
66335;Laerm;53138;51.496;6.410;2023-02-04T00:30:43;33.88;31.40;38.83;;
66335;Laerm;53138;51.496;6.410;2023-02-04T00:30:53;41.83;35.96;47.37;;
66335;Laerm;53138;51.496;6.410;2023-02-04T00:31:03;38.87;34.44;44.88;;
66335;Laerm;53138;51.496;6.410;2023-02-04T00:31:13;37.51;33.26;44.76;;
66335;Laerm;53138;51.496;6.410;2023-02-04T00:31:24;34.79;32.31;38.93;;
66335;Laerm;53138;51.496;6.410;2023-02-04T00:31:34;34.95;32.68;37.44;;
66335;Laerm;53138;51.496;6.410;2023-02-04T00:31:44;37.56;32.76;46.94;;
66335;Laerm;53138;51.496;6.410;2023-02-04T00:31:54;35.28;32.69;43.12;;
66335;Laerm;53138;51.496;6.410;2023-02-04T00:32:05;34.76;32.84;37.46;;
66335;Laerm;53138;51.496;6.410;2023-02-04T00:32:15;36.00;32.44;40.41;;
66335;Laerm;53138;51.496;6.410;2023-02-04T00:32:25;39.00;35.68;43.12;;
66335;Laerm;53138;51.496;6.410;2023-02-04T00:32:35;41.05;34.61;45.94;;
66335;Laerm;53138;51.496;6.410;2023-02-04T00:32:45;33.58;31.45;38.44;;
66335;Laerm;53138;51.496;6.410;2023-02-04T00:32:55;34.98;31.74;49.01;;
66335;Laerm;53138;51.496;6.410;2023-02-04T00:33:06;36.33;32.85;40.74;;
66335;Laerm;53138;51.496;6.410;2023-02-04T00:33:16;39.09;34.90;44.07;;
66335;Laerm;53138;51.496;6.410;2023-02-04T00:33:26;42.01;36.36;47.50;;
66335;Laerm;53138;51.496;6.410;2023-02-04T00:33:37;37.47;32.74;44.80;;
66335;Laerm;53138;51.496;6.410;2023-02-04T00:33:48;33.26;31.47;35.07;;
66335;Laerm;53138;51.496;6.410;2023-02-04T00:33:58;33.20;31.20;35.07;;
66335;Laerm;53138;51.496;6.410;2023-02-04T00:34:08;32.51;30.37;34.50;;
66335;Laerm;53138;51.496;6.410;2023-02-04T00:34:18;32.42;30.44;35.47;;
66335;Laerm;53138;51.496;6.410;2023-02-04T00:34:29;33.00;30.52;37.00;;
66335;Laerm;53138;51.496;6.410;2023-02-04T00:34:39;37.55;30.55;58.73;;
66335;Laerm;53138;51.496;6.410;2023-02-04T00:34:49;32.66;30.84;34.83;;
66335;Laerm;53138;51.496;6.410;2023-02-04T00:35:00;33.51;31.25;36.49;;
66335;Laerm;53138;51.496;6.410;2023-02-04T00:35:13;33.68;31.27;36.75;;
66335;Laerm;53138;51.496;6.410;2023-02-04T00:35:23;33.65;30.93;37.72;;
66335;Laerm;53138;51.496;6.410;2023-02-04T00:35:34;32.40;30.05;34.66;;
66335;Laerm;53138;51.496;6.410;2023-02-04T00:35:46;35.12;30.51;41.56;;
66335;Laerm;53138;51.496;6.410;2023-02-04T00:35:56;41.89;35.65;45.72;;
66335;Laerm;53138;51.496;6.410;2023-02-04T00:36:06;39.44;34.93;45.06;;
66335;Laerm;53138;51.496;6.410;2023-02-04T00:36:17;36.40;32.98;39.14;;
66335;Laerm;53138;51.496;6.410;2023-02-04T00:36:27;37.17;33.51;41.20;;
66335;Laerm;53138;51.496;6.410;2023-02-04T00:36:37;37.14;32.94;41.25;;
66335;Laerm;53138;51.496;6.410;2023-02-04T00:36:47;37.79;33.27;42.42;;
66335;Laerm;53138;51.496;6.410;2023-02-04T00:36:58;33.97;31.82;36.81;;
66335;Laerm;53138;51.496;6.410;2023-02-04T00:37:08;37.98;32.34;43.68;;
66335;Laerm;53138;51.496;6.410;2023-02-04T00:37:19;33.62;30.83;36.50;;
66335;Laerm;53138;51.496;6.410;2023-02-04T00:37:29;35.62;30.55;40.88;;
66335;Laerm;53138;51.496;6.410;2023-02-04T00:37:40;37.25;32.57;41.88;;
66335;Laerm;53138;51.496;6.410;2023-02-04T00:37:50;34.92;31.40;40.62;;
66335;Laerm;53138;51.496;6.410;2023-02-04T00:38:00;32.53;30.87;34.71;;
66335;Laerm;53138;51.496;6.410;2023-02-04T00:38:10;32.47;30.30;34.50;;
66335;Laerm;53138;51.496;6.410;2023-02-04T00:38:21;31.57;29.92;33.22;;
66335;Laerm;53138;51.496;6.410;2023-02-04T00:38:32;31.59;30.21;32.63;;
66335;Laerm;53138;51.496;6.410;2023-02-04T00:38:42;31.27;29.87;32.80;;
66335;Laerm;53138;51.496;6.410;2023-02-04T00:38:52;31.15;30.03;32.58;;
66335;Laerm;53138;51.496;6.410;2023-02-04T00:39:02;31.17;29.68;33.08;;
66335;Laerm;53138;51.496;6.410;2023-02-04T00:39:12;31.54;30.13;33.10;;
66335;Laerm;53138;51.496;6.410;2023-02-04T00:39:23;31.84;30.40;33.41;;
66335;Laerm;53138;51.496;6.410;2023-02-04T00:39:33;32.86;31.11;34.87;;
66335;Laerm;53138;51.496;6.410;2023-02-04T00:39:43;35.39;32.44;39.85;;
66335;Laerm;53138;51.496;6.410;2023-02-04T00:39:53;36.40;32.11;40.78;;
66335;Laerm;53138;51.496;6.410;2023-02-04T00:40:04;43.47;38.59;49.23;;
66335;Laerm;53138;51.496;6.410;2023-02-04T00:40:14;45.26;34.36;51.02;;
66335;Laerm;53138;51.496;6.410;2023-02-04T00:40:24;32.41;29.95;37.91;;
66335;Laerm;53138;51.496;6.410;2023-02-04T00:40:34;31.22;29.54;33.43;;
66335;Laerm;53138;51.496;6.410;2023-02-04T00:40:45;31.18;29.36;34.08;;
66335;Laerm;53138;51.496;6.410;2023-02-04T00:40:55;31.37;29.42;33.21;;
66335;Laerm;53138;51.496;6.410;2023-02-04T00:41:05;31.57;30.13;33.83;;
66335;Laerm;53138;51.496;6.410;2023-02-04T00:41:16;31.43;30.23;33.46;;
66335;Laerm;53138;51.496;6.410;2023-02-04T00:41:26;31.54;29.80;33.72;;
66335;Laerm;53138;51.496;6.410;2023-02-04T00:41:36;33.20;30.69;41.25;;
66335;Laerm;53138;51.496;6.410;2023-02-04T00:41:46;32.02;30.33;34.20;;
66335;Laerm;53138;51.496;6.410;2023-02-04T00:41:56;33.67;30.48;42.48;;
66335;Laerm;53138;51.496;6.410;2023-02-04T00:42:07;32.89;30.06;43.76;;
66335;Laerm;53138;51.496;6.410;2023-02-04T00:42:17;31.93;30.11;37.81;;
66335;Laerm;53138;51.496;6.410;2023-02-04T00:42:27;31.24;29.64;33.73;;
66335;Laerm;53138;51.496;6.410;2023-02-04T00:42:37;31.14;29.56;33.07;;
66335;Laerm;53138;51.496;6.410;2023-02-04T00:42:48;31.23;29.36;36.62;;
66335;Laerm;53138;51.496;6.410;2023-02-04T00:42:58;38.71;29.66;50.91;;
66335;Laerm;53138;51.496;6.410;2023-02-04T00:43:08;33.01;29.84;42.74;;
66335;Laerm;53138;51.496;6.410;2023-02-04T00:43:18;31.14;29.59;38.72;;
66335;Laerm;53138;51.496;6.410;2023-02-04T00:43:28;33.37;29.74;47.20;;
66335;Laerm;53138;51.496;6.410;2023-02-04T00:43:39;32.42;29.77;43.55;;
66335;Laerm;53138;51.496;6.410;2023-02-04T00:43:49;31.59;29.65;36.69;;
66335;Laerm;53138;51.496;6.410;2023-02-04T00:43:59;31.69;29.85;34.23;;
66335;Laerm;53138;51.496;6.410;2023-02-04T00:44:09;34.73;31.30;39.55;;
66335;Laerm;53138;51.496;6.410;2023-02-04T00:44:19;37.48;32.48;45.49;;
66335;Laerm;53138;51.496;6.410;2023-02-04T00:44:30;40.35;34.53;47.02;;
66335;Laerm;53138;51.496;6.410;2023-02-04T00:44:40;43.64;37.67;50.65;;
66335;Laerm;53138;51.496;6.410;2023-02-04T00:44:50;43.20;31.38;49.26;;
66335;Laerm;53138;51.496;6.410;2023-02-04T00:45:00;31.50;29.85;34.02;;
66335;Laerm;53138;51.496;6.410;2023-02-04T00:45:11;31.41;29.89;38.35;;
66335;Laerm;53138;51.496;6.410;2023-02-04T00:45:21;33.82;30.39;42.86;;
66335;Laerm;53138;51.496;6.410;2023-02-04T00:45:31;33.27;30.19;44.34;;
66335;Laerm;53138;51.496;6.410;2023-02-04T00:45:42;34.15;32.06;38.41;;
66335;Laerm;53138;51.496;6.410;2023-02-04T00:45:52;41.00;36.02;47.49;;
66335;Laerm;53138;51.496;6.410;2023-02-04T00:46:02;43.34;33.78;48.71;;
66335;Laerm;53138;51.496;6.410;2023-02-04T00:46:12;34.63;29.87;43.79;;
66335;Laerm;53138;51.496;6.410;2023-02-04T00:46:22;31.34;29.67;37.46;;
66335;Laerm;53138;51.496;6.410;2023-02-04T00:46:32;34.20;29.57;46.41;;
66335;Laerm;53138;51.496;6.410;2023-02-04T00:46:43;31.42;29.25;38.30;;
66335;Laerm;53138;51.496;6.410;2023-02-04T00:46:53;31.29;29.47;35.35;;
66335;Laerm;53138;51.496;6.410;2023-02-04T00:47:03;31.66;29.77;35.34;;
66335;Laerm;53138;51.496;6.410;2023-02-04T00:47:14;39.40;32.96;43.27;;
66335;Laerm;53138;51.496;6.410;2023-02-04T00:47:24;36.84;33.70;46.87;;
66335;Laerm;53138;51.496;6.410;2023-02-04T00:47:34;34.15;30.69;39.12;;
66335;Laerm;53138;51.496;6.410;2023-02-04T00:47:44;32.73;30.06;41.47;;
66335;Laerm;53138;51.496;6.410;2023-02-04T00:47:54;32.49;30.56;36.77;;
66335;Laerm;53138;51.496;6.410;2023-02-04T00:48:06;31.91;30.25;35.36;;
66335;Laerm;53138;51.496;6.410;2023-02-04T00:48:16;32.51;29.75;36.57;;
66335;Laerm;53138;51.496;6.410;2023-02-04T00:48:26;32.01;29.99;33.58;;
66335;Laerm;53138;51.496;6.410;2023-02-04T00:48:36;31.84;30.15;41.26;;
66335;Laerm;53138;51.496;6.410;2023-02-04T00:48:46;31.92;30.00;39.95;;
66335;Laerm;53138;51.496;6.410;2023-02-04T00:48:57;32.48;30.42;36.57;;
66335;Laerm;53138;51.496;6.410;2023-02-04T00:49:07;33.95;30.58;45.57;;
66335;Laerm;53138;51.496;6.410;2023-02-04T00:49:19;35.52;30.11;48.35;;
66335;Laerm;53138;51.496;6.410;2023-02-04T00:49:29;33.65;30.51;43.25;;
66335;Laerm;53138;51.496;6.410;2023-02-04T00:49:40;32.46;30.21;39.82;;
66335;Laerm;53138;51.496;6.410;2023-02-04T00:49:50;32.03;30.43;34.58;;
66335;Laerm;53138;51.496;6.410;2023-02-04T00:50:00;32.91;30.18;40.05;;
66335;Laerm;53138;51.496;6.410;2023-02-04T00:50:10;32.08;30.60;33.85;;
66335;Laerm;53138;51.496;6.410;2023-02-04T00:50:21;32.67;30.23;37.38;;
66335;Laerm;53138;51.496;6.410;2023-02-04T00:50:31;32.02;30.21;34.76;;
66335;Laerm;53138;51.496;6.410;2023-02-04T00:50:41;33.21;30.34;37.25;;
66335;Laerm;53138;51.496;6.410;2023-02-04T00:50:51;32.26;30.39;35.13;;
66335;Laerm;53138;51.496;6.410;2023-02-04T00:51:03;31.94;30.57;34.79;;
66335;Laerm;53138;51.496;6.410;2023-02-04T00:51:13;32.75;31.16;36.18;;
66335;Laerm;53138;51.496;6.410;2023-02-04T00:51:23;39.70;34.60;44.33;;
66335;Laerm;53138;51.496;6.410;2023-02-04T00:51:33;38.37;33.97;45.01;;
66335;Laerm;53138;51.496;6.410;2023-02-04T00:51:43;36.23;32.48;41.09;;
66335;Laerm;53138;51.496;6.410;2023-02-04T00:51:55;42.66;35.96;49.21;;
66335;Laerm;53138;51.496;6.410;2023-02-04T00:52:05;38.58;32.08;46.89;;
66335;Laerm;53138;51.496;6.410;2023-02-04T00:52:16;33.94;31.92;36.66;;
66335;Laerm;53138;51.496;6.410;2023-02-04T00:52:26;34.34;32.16;37.65;;
66335;Laerm;53138;51.496;6.410;2023-02-04T00:52:36;33.26;31.21;35.06;;
66335;Laerm;53138;51.496;6.410;2023-02-04T00:52:46;32.94;31.17;35.76;;
66335;Laerm;53138;51.496;6.410;2023-02-04T00:52:56;33.13;31.30;35.14;;
66335;Laerm;53138;51.496;6.410;2023-02-04T00:53:10;33.30;31.08;35.62;;
66335;Laerm;53138;51.496;6.410;2023-02-04T00:53:20;33.52;31.45;36.23;;
66335;Laerm;53138;51.496;6.410;2023-02-04T00:53:31;33.29;31.43;36.35;;
66335;Laerm;53138;51.496;6.410;2023-02-04T00:53:41;35.95;31.82;47.48;;
66335;Laerm;53138;51.496;6.410;2023-02-04T00:53:51;33.44;31.36;40.92;;
66335;Laerm;53138;51.496;6.410;2023-02-04T00:54:01;33.04;31.04;35.30;;
66335;Laerm;53138;51.496;6.410;2023-02-04T00:54:12;32.91;30.38;35.06;;
66335;Laerm;53138;51.496;6.410;2023-02-04T00:54:23;33.17;31.16;35.38;;
66335;Laerm;53138;51.496;6.410;2023-02-04T00:54:33;32.86;30.94;35.12;;
66335;Laerm;53138;51.496;6.410;2023-02-04T00:54:43;33.12;31.30;35.06;;
66335;Laerm;53138;51.496;6.410;2023-02-04T00:54:54;39.26;31.54;59.30;;
66335;Laerm;53138;51.496;6.410;2023-02-04T00:55:04;38.28;31.72;50.00;;
66335;Laerm;53138;51.496;6.410;2023-02-04T00:55:17;34.84;30.95;48.13;;
66335;Laerm;53138;51.496;6.410;2023-02-04T00:55:27;33.13;30.91;35.20;;
66335;Laerm;53138;51.496;6.410;2023-02-04T00:55:37;34.08;31.16;39.65;;
66335;Laerm;53138;51.496;6.410;2023-02-04T00:55:48;33.22;31.38;35.93;;
66335;Laerm;53138;51.496;6.410;2023-02-04T00:55:58;33.90;31.36;38.39;;
66335;Laerm;53138;51.496;6.410;2023-02-04T00:56:08;32.83;31.29;35.92;;
66335;Laerm;53138;51.496;6.410;2023-02-04T00:56:18;33.01;30.25;39.48;;
66335;Laerm;53138;51.496;6.410;2023-02-04T00:56:28;33.56;30.58;40.02;;
66335;Laerm;53138;51.496;6.410;2023-02-04T00:56:38;33.81;30.19;42.62;;
66335;Laerm;53138;51.496;6.410;2023-02-04T00:56:49;33.32;30.95;40.01;;
66335;Laerm;53138;51.496;6.410;2023-02-04T00:56:59;33.06;30.88;35.92;;
66335;Laerm;53138;51.496;6.410;2023-02-04T00:57:09;32.59;30.48;37.97;;
66335;Laerm;53138;51.496;6.410;2023-02-04T00:57:19;35.90;32.31;38.19;;
66335;Laerm;53138;51.496;6.410;2023-02-04T00:57:29;32.15;30.40;34.57;;
66335;Laerm;53138;51.496;6.410;2023-02-04T00:57:39;32.14;30.34;35.65;;
66335;Laerm;53138;51.496;6.410;2023-02-04T00:57:50;33.21;30.60;35.46;;